sensor_id;sensor_type;location;lat;lon;timestamp;pressure;altitude;pressure_sealevel;temperature;humidity
73453;BME280;61687;56.232;43.854;2024-03-02T00:02:16;102208.81;;;1.67;73.90
73453;BME280;61687;56.232;43.854;2024-03-02T00:04:44;102212.31;;;1.68;73.79
73453;BME280;61687;56.232;43.854;2024-03-02T00:07:14;102206.16;;;1.73;73.71
73453;BME280;61687;56.232;43.854;2024-03-02T00:09:40;102206.44;;;1.76;73.65
73453;BME280;61687;56.232;43.854;2024-03-02T00:12:07;102206.50;;;1.86;73.55
73453;BME280;61687;56.232;43.854;2024-03-02T00:14:33;102210.06;;;1.92;73.43
73453;BME280;61687;56.232;43.854;2024-03-02T00:16:59;102205.97;;;1.90;73.52
73453;BME280;61687;56.232;43.854;2024-03-02T00:19:25;102213.78;;;1.81;73.55
73453;BME280;61687;56.232;43.854;2024-03-02T00:21:51;102209.41;;;1.75;73.83
73453;BME280;61687;56.232;43.854;2024-03-02T00:24:31;102211.25;;;1.69;74.07
73453;BME280;61687;56.232;43.854;2024-03-02T00:26:58;102209.91;;;1.71;74.10
73453;BME280;61687;56.232;43.854;2024-03-02T00:29:24;102210.78;;;1.77;73.90
73453;BME280;61687;56.232;43.854;2024-03-02T00:31:50;102208.88;;;1.78;74.03
73453;BME280;61687;56.232;43.854;2024-03-02T00:34:17;102212.19;;;1.85;73.78
73453;BME280;61687;56.232;43.854;2024-03-02T00:36:43;102206.47;;;1.81;73.82
73453;BME280;61687;56.232;43.854;2024-03-02T00:39:12;102207.78;;;1.79;74.12
73453;BME280;61687;56.232;43.854;2024-03-02T00:41:40;102205.91;;;1.74;74.25
73453;BME280;61687;56.232;43.854;2024-03-02T00:44:10;102205.06;;;1.74;74.46
73453;BME280;61687;56.232;43.854;2024-03-02T00:46:41;102206.16;;;1.73;74.65
73453;BME280;61687;56.232;43.854;2024-03-02T00:49:12;102218.56;;;1.68;74.78
73453;BME280;61687;56.232;43.854;2024-03-02T00:51:46;102211.97;;;1.59;75.18
73453;BME280;61687;56.232;43.854;2024-03-02T00:54:15;102211.16;;;1.53;75.40
73453;BME280;61687;56.232;43.854;2024-03-02T00:56:41;102215.75;;;1.58;75.23
73453;BME280;61687;56.232;43.854;2024-03-02T00:59:07;102216.94;;;1.67;74.87
73453;BME280;61687;56.232;43.854;2024-03-02T01:01:34;102210.56;;;1.84;74.61
73453;BME280;61687;56.232;43.854;2024-03-02T01:04:00;102210.63;;;1.99;74.35
73453;BME280;61687;56.232;43.854;2024-03-02T01:06:26;102208.00;;;2.10;73.89
73453;BME280;61687;56.232;43.854;2024-03-02T01:08:53;102222.63;;;2.14;73.79
73453;BME280;61687;56.232;43.854;2024-03-02T01:11:20;102214.00;;;2.22;73.34
73453;BME280;61687;56.232;43.854;2024-03-02T01:13:47;102220.47;;;2.21;73.48
73453;BME280;61687;56.232;43.854;2024-03-02T01:16:14;102222.09;;;2.17;73.49
73453;BME280;61687;56.232;43.854;2024-03-02T01:18:41;102229.72;;;2.25;73.22
73453;BME280;61687;56.232;43.854;2024-03-02T01:21:08;102227.03;;;2.31;73.28
73453;BME280;61687;56.232;43.854;2024-03-02T01:23:33;102225.19;;;2.36;73.21
73453;BME280;61687;56.232;43.854;2024-03-02T01:26:00;102234.63;;;2.39;72.99
73453;BME280;61687;56.232;43.854;2024-03-02T01:28:25;102237.34;;;2.44;72.73
73453;BME280;61687;56.232;43.854;2024-03-02T01:30:51;102240.38;;;2.48;72.65
73453;BME280;61687;56.232;43.854;2024-03-02T01:33:19;102236.31;;;2.50;72.42
73453;BME280;61687;56.232;43.854;2024-03-02T01:35:47;102234.16;;;2.52;72.38
73453;BME280;61687;56.232;43.854;2024-03-02T01:38:13;102234.41;;;2.46;72.36
73453;BME280;61687;56.232;43.854;2024-03-02T01:40:39;102239.25;;;2.38;72.66
73453;BME280;61687;56.232;43.854;2024-03-02T01:43:05;102228.97;;;2.40;72.48
73453;BME280;61687;56.232;43.854;2024-03-02T01:45:32;102241.44;;;2.41;72.66
73453;BME280;61687;56.232;43.854;2024-03-02T01:47:58;102238.94;;;2.29;72.96
73453;BME280;61687;56.232;43.854;2024-03-02T01:50:29;102238.88;;;2.19;73.17
73453;BME280;61687;56.232;43.854;2024-03-02T01:52:56;102241.03;;;2.22;73.16
73453;BME280;61687;56.232;43.854;2024-03-02T01:55:22;102243.50;;;2.24;73.30
73453;BME280;61687;56.232;43.854;2024-03-02T01:57:49;102248.41;;;2.32;73.20
73453;BME280;61687;56.232;43.854;2024-03-02T02:00:19;102247.06;;;2.35;72.95
73453;BME280;61687;56.232;43.854;2024-03-02T02:02:46;102254.13;;;2.41;72.84
73453;BME280;61687;56.232;43.854;2024-03-02T02:05:13;102258.50;;;2.47;72.61
73453;BME280;61687;56.232;43.854;2024-03-02T02:07:41;102254.97;;;2.47;72.70
73453;BME280;61687;56.232;43.854;2024-03-02T02:10:08;102257.16;;;2.50;72.62
73453;BME280;61687;56.232;43.854;2024-03-02T02:12:36;102263.09;;;2.52;72.72
73453;BME280;61687;56.232;43.854;2024-03-02T02:15:03;102251.72;;;2.50;72.71
73453;BME280;61687;56.232;43.854;2024-03-02T02:17:31;102253.34;;;2.51;72.71
73453;BME280;61687;56.232;43.854;2024-03-02T02:19:57;102249.56;;;2.52;72.86
73453;BME280;61687;56.232;43.854;2024-03-02T02:22:23;102248.47;;;2.42;73.12
73453;BME280;61687;56.232;43.854;2024-03-02T02:24:49;102248.97;;;2.34;73.33
73453;BME280;61687;56.232;43.854;2024-03-02T02:27:15;102247.59;;;2.26;73.30
73453;BME280;61687;56.232;43.854;2024-03-02T02:29:41;102244.03;;;2.26;73.56
73453;BME280;61687;56.232;43.854;2024-03-02T02:32:07;102246.22;;;2.29;73.63
73453;BME280;61687;56.232;43.854;2024-03-02T02:34:33;102251.91;;;2.27;73.72
73453;BME280;61687;56.232;43.854;2024-03-02T02:37:00;102238.63;;;2.26;73.67
73453;BME280;61687;56.232;43.854;2024-03-02T02:39:26;102246.22;;;2.29;73.44
73453;BME280;61687;56.232;43.854;2024-03-02T02:41:52;102254.09;;;2.31;73.59
73453;BME280;61687;56.232;43.854;2024-03-02T02:44:18;102256.25;;;2.28;74.04
73453;BME280;61687;56.232;43.854;2024-03-02T02:46:44;102256.47;;;2.22;73.84
73453;BME280;61687;56.232;43.854;2024-03-02T02:49:10;102252.66;;;2.12;74.10
73453;BME280;61687;56.232;43.854;2024-03-02T02:51:36;102253.97;;;2.10;74.19
73453;BME280;61687;56.232;43.854;2024-03-02T02:54:02;102260.47;;;2.14;74.21
73453;BME280;61687;56.232;43.854;2024-03-02T02:56:28;102252.38;;;2.14;74.24
73453;BME280;61687;56.232;43.854;2024-03-02T02:58:54;102260.81;;;2.23;74.11
73453;BME280;61687;56.232;43.854;2024-03-02T03:01:19;102263.81;;;2.26;74.02
73453;BME280;61687;56.232;43.854;2024-03-02T03:03:45;102263.00;;;2.31;73.99
73453;BME280;61687;56.232;43.854;2024-03-02T03:06:12;102256.81;;;2.36;74.06
73453;BME280;61687;56.232;43.854;2024-03-02T03:08:38;102263.88;;;2.42;73.98
73453;BME280;61687;56.232;43.854;2024-03-02T03:11:04;102266.00;;;2.35;73.90
73453;BME280;61687;56.232;43.854;2024-03-02T03:13:34;102273.59;;;2.38;73.93
73453;BME280;61687;56.232;43.854;2024-03-02T03:16:00;102267.41;;;2.48;73.91
73453;BME280;61687;56.232;43.854;2024-03-02T03:18:26;102263.94;;;2.52;73.73
73453;BME280;61687;56.232;43.854;2024-03-02T03:20:52;102265.56;;;2.58;73.60
73453;BME280;61687;56.232;43.854;2024-03-02T03:23:18;102267.75;;;2.62;73.49
73453;BME280;61687;56.232;43.854;2024-03-02T03:25:44;102255.28;;;2.61;73.46
73453;BME280;61687;56.232;43.854;2024-03-02T03:28:10;102256.13;;;2.61;73.58
73453;BME280;61687;56.232;43.854;2024-03-02T03:30:37;102260.16;;;2.58;73.32
73453;BME280;61687;56.232;43.854;2024-03-02T03:33:04;102257.44;;;2.53;73.32
73453;BME280;61687;56.232;43.854;2024-03-02T03:35:34;102257.44;;;2.53;73.43
73453;BME280;61687;56.232;43.854;2024-03-02T03:38:00;102264.72;;;2.53;73.46
73453;BME280;61687;56.232;43.854;2024-03-02T03:40:26;102264.47;;;2.54;73.43
73453;BME280;61687;56.232;43.854;2024-03-02T03:42:52;102268.28;;;2.53;73.48
73453;BME280;61687;56.232;43.854;2024-03-02T03:45:19;102265.00;;;2.51;73.52
73453;BME280;61687;56.232;43.854;2024-03-02T03:47:45;102270.44;;;2.51;73.54
73453;BME280;61687;56.232;43.854;2024-03-02T03:50:11;102271.75;;;2.49;73.64
73453;BME280;61687;56.232;43.854;2024-03-02T03:52:38;102273.91;;;2.47;73.74
73453;BME280;61687;56.232;43.854;2024-03-02T03:55:04;102277.41;;;2.42;73.79
73453;BME280;61687;56.232;43.854;2024-03-02T03:57:33;102277.94;;;2.39;73.92
73453;BME280;61687;56.232;43.854;2024-03-02T03:59:59;102276.06;;;2.45;73.85
73453;BME280;61687;56.232;43.854;2024-03-02T04:02:26;102283.94;;;2.46;73.75
73453;BME280;61687;56.232;43.854;2024-03-02T04:04:52;102286.66;;;2.51;73.40
73453;BME280;61687;56.232;43.854;2024-03-02T04:07:17;102291.53;;;2.49;73.23
73453;BME280;61687;56.232;43.854;2024-03-02T04:09:43;102286.91;;;2.45;73.34
73453;BME280;61687;56.232;43.854;2024-03-02T04:12:09;102289.59;;;2.39;73.60
73453;BME280;61687;56.232;43.854;2024-03-02T04:14:35;102288.47;;;2.35;73.56
73453;BME280;61687;56.232;43.854;2024-03-02T04:17:03;102296.31;;;2.37;73.71
73453;BME280;61687;56.232;43.854;2024-03-02T04:19:29;102311.50;;;2.43;73.55
73453;BME280;61687;56.232;43.854;2024-03-02T04:21:55;102299.34;;;2.46;73.43
73453;BME280;61687;56.232;43.854;2024-03-02T04:24:21;102294.50;;;2.53;73.17
73453;BME280;61687;56.232;43.854;2024-03-02T04:26:47;102295.34;;;2.58;72.96
73453;BME280;61687;56.232;43.854;2024-03-02T04:29:13;102296.97;;;2.60;72.82
73453;BME280;61687;56.232;43.854;2024-03-02T04:31:38;102300.75;;;2.58;72.87
73453;BME280;61687;56.232;43.854;2024-03-02T04:34:04;102304.00;;;2.55;72.71
73453;BME280;61687;56.232;43.854;2024-03-02T04:36:30;102291.47;;;2.39;72.72
73453;BME280;61687;56.232;43.854;2024-03-02T04:38:56;102303.34;;;2.33;72.98
73453;BME280;61687;56.232;43.854;2024-03-02T04:41:22;102302.56;;;2.37;73.40
73453;BME280;61687;56.232;43.854;2024-03-02T04:43:48;102299.88;;;2.42;72.96
73453;BME280;61687;56.232;43.854;2024-03-02T04:46:14;102300.44;;;2.45;72.88
73453;BME280;61687;56.232;43.854;2024-03-02T04:48:41;102303.66;;;2.41;72.95
73453;BME280;61687;56.232;43.854;2024-03-02T04:51:07;102302.06;;;2.46;73.00
73453;BME280;61687;56.232;43.854;2024-03-02T04:53:33;102305.59;;;2.46;73.07
73453;BME280;61687;56.232;43.854;2024-03-02T04:55:59;102303.44;;;2.48;72.85
73453;BME280;61687;56.232;43.854;2024-03-02T04:58:43;102300.19;;;2.46;72.82
73453;BME280;61687;56.232;43.854;2024-03-02T05:01:09;102299.88;;;2.42;72.82
73453;BME280;61687;56.232;43.854;2024-03-02T05:03:36;102298.81;;;2.49;72.92
73453;BME280;61687;56.232;43.854;2024-03-02T05:06:02;102294.22;;;2.49;72.83
73453;BME280;61687;56.232;43.854;2024-03-02T05:08:28;102298.03;;;2.48;72.88
73453;BME280;61687;56.232;43.854;2024-03-02T05:10:54;102303.44;;;2.53;72.83
73453;BME280;61687;56.232;43.854;2024-03-02T05:13:20;102304.56;;;2.63;72.70
73453;BME280;61687;56.232;43.854;2024-03-02T05:15:46;102301.38;;;2.71;72.32
73453;BME280;61687;56.232;43.854;2024-03-02T05:18:12;102305.72;;;2.77;72.19
73453;BME280;61687;56.232;43.854;2024-03-02T05:20:38;102306.28;;;2.84;71.90
73453;BME280;61687;56.232;43.854;2024-03-02T05:23:04;102315.53;;;2.89;71.76
73453;BME280;61687;56.232;43.854;2024-03-02T05:25:30;102316.88;;;2.91;71.62
73453;BME280;61687;56.232;43.854;2024-03-02T05:27:56;102305.78;;;2.88;71.65
73453;BME280;61687;56.232;43.854;2024-03-02T05:30:22;102316.56;;;2.82;71.93
73453;BME280;61687;56.232;43.854;2024-03-02T05:32:48;102314.69;;;2.83;71.73
73453;BME280;61687;56.232;43.854;2024-03-02T05:35:14;102317.66;;;2.81;71.65
73453;BME280;61687;56.232;43.854;2024-03-02T05:37:40;102312.22;;;2.81;71.68
73453;BME280;61687;56.232;43.854;2024-03-02T05:40:06;102312.78;;;2.83;71.63
73453;BME280;61687;56.232;43.854;2024-03-02T05:42:32;102310.06;;;2.78;71.94
73453;BME280;61687;56.232;43.854;2024-03-02T05:44:58;102317.41;;;2.83;71.80
73453;BME280;61687;56.232;43.854;2024-03-02T05:47:24;102319.31;;;2.88;71.76
73453;BME280;61687;56.232;43.854;2024-03-02T05:49:50;102327.72;;;2.91;71.55
73453;BME280;61687;56.232;43.854;2024-03-02T05:52:15;102322.59;;;2.95;71.40
73453;BME280;61687;56.232;43.854;2024-03-02T05:54:41;102332.09;;;2.97;71.17
73453;BME280;61687;56.232;43.854;2024-03-02T05:57:07;102331.25;;;2.97;71.10
73453;BME280;61687;56.232;43.854;2024-03-02T05:59:47;102332.59;;;2.94;71.04
73453;BME280;61687;56.232;43.854;2024-03-02T06:02:13;102339.38;;;2.92;71.24
73453;BME280;61687;56.232;43.854;2024-03-02T06:04:39;102340.69;;;2.84;71.50
73453;BME280;61687;56.232;43.854;2024-03-02T06:07:05;102339.84;;;2.78;71.60
73453;BME280;61687;56.232;43.854;2024-03-02T06:09:31;102343.66;;;2.82;71.54
73453;BME280;61687;56.232;43.854;2024-03-02T06:11:57;102340.16;;;2.92;71.46
73453;BME280;61687;56.232;43.854;2024-03-02T06:14:22;102346.97;;;3.00;71.19
73453;BME280;61687;56.232;43.854;2024-03-02T06:16:48;102350.75;;;2.99;71.11
73453;BME280;61687;56.232;43.854;2024-03-02T06:19:14;102349.44;;;3.02;71.12
73453;BME280;61687;56.232;43.854;2024-03-02T06:21:40;102344.88;;;3.12;70.83
73453;BME280;61687;56.232;43.854;2024-03-02T06:24:06;102344.88;;;3.23;70.76
73453;BME280;61687;56.232;43.854;2024-03-02T06:26:32;102338.41;;;3.39;70.39
73453;BME280;61687;56.232;43.854;2024-03-02T06:28:58;102336.00;;;3.48;70.00
73453;BME280;61687;56.232;43.854;2024-03-02T06:31:24;102343.84;;;3.44;69.76
73453;BME280;61687;56.232;43.854;2024-03-02T06:33:50;102344.94;;;3.43;69.95
73453;BME280;61687;56.232;43.854;2024-03-02T06:36:16;102346.31;;;3.51;69.98
73453;BME280;61687;56.232;43.854;2024-03-02T06:38:42;102351.75;;;3.62;69.65
73453;BME280;61687;56.232;43.854;2024-03-02T06:41:08;102350.38;;;3.69;69.17
73453;BME280;61687;56.232;43.854;2024-03-02T06:43:34;102353.38;;;3.73;69.00
73453;BME280;61687;56.232;43.854;2024-03-02T06:46:00;102358.25;;;3.76;68.86
73453;BME280;61687;56.232;43.854;2024-03-02T06:48:27;102367.75;;;3.84;68.70
73453;BME280;61687;56.232;43.854;2024-03-02T06:50:54;102364.25;;;3.94;68.60
73453;BME280;61687;56.232;43.854;2024-03-02T06:53:21;102365.59;;;4.07;68.16
73453;BME280;61687;56.232;43.854;2024-03-02T06:55:48;102362.88;;;4.12;67.80
73453;BME280;61687;56.232;43.854;2024-03-02T06:58:14;102364.50;;;4.13;67.78
73453;BME280;61687;56.232;43.854;2024-03-02T07:00:43;102363.13;;;4.21;67.66
73453;BME280;61687;56.232;43.854;2024-03-02T07:03:11;102369.66;;;4.30;67.39
73453;BME280;61687;56.232;43.854;2024-03-02T07:05:38;102367.22;;;4.39;67.19
73453;BME280;61687;56.232;43.854;2024-03-02T07:08:04;102362.03;;;4.42;66.88
73453;BME280;61687;56.232;43.854;2024-03-02T07:10:31;102370.44;;;4.46;66.67
73453;BME280;61687;56.232;43.854;2024-03-02T07:12:57;102369.09;;;4.49;66.59
73453;BME280;61687;56.232;43.854;2024-03-02T07:15:23;102368.25;;;4.53;66.39
73453;BME280;61687;56.232;43.854;2024-03-02T07:18:09;102366.91;;;4.56;66.07
73453;BME280;61687;56.232;43.854;2024-03-02T07:20:35;102370.72;;;4.50;66.21
73453;BME280;61687;56.232;43.854;2024-03-02T07:23:01;102365.84;;;4.47;66.31
73453;BME280;61687;56.232;43.854;2024-03-02T07:25:27;102371.00;;;4.43;66.35
73453;BME280;61687;56.232;43.854;2024-03-02T07:27:53;102364.72;;;4.53;66.01
73453;BME280;61687;56.232;43.854;2024-03-02T07:30:19;102367.41;;;4.68;65.54
73453;BME280;61687;56.232;43.854;2024-03-02T07:32:45;102362.47;;;4.91;64.69
73453;BME280;61687;56.232;43.854;2024-03-02T07:35:12;102373.50;;;5.10;64.17
73453;BME280;61687;56.232;43.854;2024-03-02T07:37:39;102366.66;;;5.23;63.60
73453;BME280;61687;56.232;43.854;2024-03-02T07:40:05;102364.72;;;5.29;63.43
73453;BME280;61687;56.232;43.854;2024-03-02T07:42:35;102374.00;;;5.23;63.48
73453;BME280;61687;56.232;43.854;2024-03-02T07:45:01;102362.31;;;5.22;63.63
73453;BME280;61687;56.232;43.854;2024-03-02T07:47:29;102365.31;;;5.21;63.54
73453;BME280;61687;56.232;43.854;2024-03-02T07:49:55;102371.03;;;5.19;63.58
73453;BME280;61687;56.232;43.854;2024-03-02T07:52:21;102368.03;;;5.21;63.39
73453;BME280;61687;56.232;43.854;2024-03-02T07:54:47;102366.06;;;5.26;63.35
73453;BME280;61687;56.232;43.854;2024-03-02T07:57:13;102364.44;;;5.30;63.02
73453;BME280;61687;56.232;43.854;2024-03-02T07:59:39;102365.47;;;5.40;62.75
73453;BME280;61687;56.232;43.854;2024-03-02T08:02:05;102374.44;;;5.40;62.78
73453;BME280;61687;56.232;43.854;2024-03-02T08:04:31;102365.66;;;5.54;62.51
73453;BME280;61687;56.232;43.854;2024-03-02T08:06:57;102366.75;;;5.53;62.20
73453;BME280;61687;56.232;43.854;2024-03-02T08:09:23;102368.97;;;5.46;61.93
73453;BME280;61687;56.232;43.854;2024-03-02T08:11:49;102371.72;;;5.40;62.23
73453;BME280;61687;56.232;43.854;2024-03-02T08:14:15;102372.22;;;5.48;62.17
73453;BME280;61687;56.232;43.854;2024-03-02T08:16:41;102366.22;;;5.51;62.08
73453;BME280;61687;56.232;43.854;2024-03-02T08:19:07;102363.97;;;5.63;61.47
73453;BME280;61687;56.232;43.854;2024-03-02T08:21:34;102363.31;;;5.77;61.25
73453;BME280;61687;56.232;43.854;2024-03-02T08:24:02;102358.03;;;5.91;60.81
73453;BME280;61687;56.232;43.854;2024-03-02T08:26:28;102361.25;;;6.03;60.44
73453;BME280;61687;56.232;43.854;2024-03-02T08:28:55;102360.81;;;6.20;60.06
73453;BME280;61687;56.232;43.854;2024-03-02T08:31:21;102350.25;;;6.43;59.63
73453;BME280;61687;56.232;43.854;2024-03-02T08:33:47;102354.91;;;6.67;59.06
73453;BME280;61687;56.232;43.854;2024-03-02T08:36:13;102358.69;;;6.71;58.29
73453;BME280;61687;56.232;43.854;2024-03-02T08:38:39;102360.13;;;6.63;58.24
73453;BME280;61687;56.232;43.854;2024-03-02T08:41:05;102354.09;;;6.66;58.21
73453;BME280;61687;56.232;43.854;2024-03-02T08:43:33;102360.81;;;6.74;57.44
73453;BME280;61687;56.232;43.854;2024-03-02T08:45:59;102358.56;;;6.81;57.24
73453;BME280;61687;56.232;43.854;2024-03-02T08:48:25;102353.84;;;7.11;56.88
73453;BME280;61687;56.232;43.854;2024-03-02T08:50:50;102360.91;;;7.51;55.38
73453;BME280;61687;56.232;43.854;2024-03-02T08:53:16;102361.50;;;7.67;55.08
73453;BME280;61687;56.232;43.854;2024-03-02T08:55:47;102363.44;;;7.47;55.36
73453;BME280;61687;56.232;43.854;2024-03-02T08:58:13;102364.53;;;7.46;55.75
73453;BME280;61687;56.232;43.854;2024-03-02T09:00:39;102355.09;;;7.38;55.60
73453;BME280;61687;56.232;43.854;2024-03-02T09:03:05;102357.44;;;7.26;56.26
73453;BME280;61687;56.232;43.854;2024-03-02T09:05:31;102353.59;;;7.27;56.38
73453;BME280;61687;56.232;43.854;2024-03-02T09:07:57;102359.38;;;7.25;56.71
73453;BME280;61687;56.232;43.854;2024-03-02T09:10:23;102350.69;;;7.23;56.35
73453;BME280;61687;56.232;43.854;2024-03-02T09:12:49;102350.97;;;7.22;56.03
73453;BME280;61687;56.232;43.854;2024-03-02T09:15:15;102339.78;;;7.23;56.14
73453;BME280;61687;56.232;43.854;2024-03-02T09:17:41;102344.63;;;7.26;56.13
73453;BME280;61687;56.232;43.854;2024-03-02T09:20:07;102351.47;;;7.24;56.01
73453;BME280;61687;56.232;43.854;2024-03-02T09:22:33;102350.22;;;7.16;56.32
73453;BME280;61687;56.232;43.854;2024-03-02T09:24:59;102344.91;;;7.06;56.13
73453;BME280;61687;56.232;43.854;2024-03-02T09:27:25;102351.47;;;7.05;55.92
73453;BME280;61687;56.232;43.854;2024-03-02T09:29:51;102350.00;;;7.12;55.72
73453;BME280;61687;56.232;43.854;2024-03-02T09:32:17;102353.69;;;7.22;55.96
73453;BME280;61687;56.232;43.854;2024-03-02T09:34:42;102356.78;;;7.15;55.96
73453;BME280;61687;56.232;43.854;2024-03-02T09:37:09;102356.91;;;7.05;55.60
73453;BME280;61687;56.232;43.854;2024-03-02T09:39:34;102354.97;;;6.86;56.03
73453;BME280;61687;56.232;43.854;2024-03-02T09:42:00;102356.94;;;6.80;56.54
73453;BME280;61687;56.232;43.854;2024-03-02T09:44:26;102353.25;;;6.71;56.91
73453;BME280;61687;56.232;43.854;2024-03-02T09:46:53;102364.28;;;6.55;57.17
73453;BME280;61687;56.232;43.854;2024-03-02T09:49:18;102361.16;;;6.43;57.69
73453;BME280;61687;56.232;43.854;2024-03-02T09:51:47;102381.41;;;6.32;58.36
73453;BME280;61687;56.232;43.854;2024-03-02T09:54:17;102382.69;;;6.10;58.05
73453;BME280;61687;56.232;43.854;2024-03-02T09:56:44;102380.63;;;5.91;58.53
73453;BME280;61687;56.232;43.854;2024-03-02T09:59:11;102386.22;;;5.70;59.19
73453;BME280;61687;56.232;43.854;2024-03-02T10:01:39;102382.75;;;5.59;59.77
73453;BME280;61687;56.232;43.854;2024-03-02T10:04:05;102380.34;;;5.53;59.78
73453;BME280;61687;56.232;43.854;2024-03-02T10:06:31;102374.16;;;5.42;60.21
73453;BME280;61687;56.232;43.854;2024-03-02T10:08:57;102380.19;;;5.28;60.70
73453;BME280;61687;56.232;43.854;2024-03-02T10:11:31;102379.66;;;5.26;60.98
73453;BME280;61687;56.232;43.854;2024-03-02T10:14:13;102378.63;;;5.22;61.27
73453;BME280;61687;56.232;43.854;2024-03-02T10:16:39;102379.13;;;5.24;61.20
73453;BME280;61687;56.232;43.854;2024-03-02T10:19:19;102386.19;;;5.25;61.18
73453;BME280;61687;56.232;43.854;2024-03-02T10:21:47;102386.72;;;5.27;61.09
73453;BME280;61687;56.232;43.854;2024-03-02T10:24:13;102390.28;;;5.28;61.17
73453;BME280;61687;56.232;43.854;2024-03-02T10:26:39;102383.44;;;5.36;60.82
73453;BME280;61687;56.232;43.854;2024-03-02T10:29:05;102391.31;;;5.42;60.56
73453;BME280;61687;56.232;43.854;2024-03-02T10:31:32;102386.13;;;5.41;60.73
73453;BME280;61687;56.232;43.854;2024-03-02T10:33:59;102392.94;;;5.43;60.84
73453;BME280;61687;56.232;43.854;2024-03-02T10:36:25;102398.03;;;5.50;60.81
73453;BME280;61687;56.232;43.854;2024-03-02T10:38:52;102397.19;;;5.55;60.77
73453;BME280;61687;56.232;43.854;2024-03-02T10:41:23;102401.53;;;5.56;60.68
73453;BME280;61687;56.232;43.854;2024-03-02T10:43:52;102398.28;;;5.54;60.76
73453;BME280;61687;56.232;43.854;2024-03-02T10:46:29;102401.09;;;5.43;61.04
73453;BME280;61687;56.232;43.854;2024-03-02T10:48:59;102408.91;;;5.50;60.91
73453;BME280;61687;56.232;43.854;2024-03-02T10:51:29;102403.91;;;5.68;60.23
73453;BME280;61687;56.232;43.854;2024-03-02T10:53:58;102405.75;;;5.78;60.17
73453;BME280;61687;56.232;43.854;2024-03-02T10:56:32;102405.97;;;5.86;59.93
73453;BME280;61687;56.232;43.854;2024-03-02T10:59:28;102403.56;;;5.85;60.00
73453;BME280;61687;56.232;43.854;2024-03-02T11:01:59;102410.63;;;5.86;60.12
73453;BME280;61687;56.232;43.854;2024-03-02T11:04:28;102410.88;;;5.84;60.43
73453;BME280;61687;56.232;43.854;2024-03-02T11:07:06;102406.53;;;5.83;60.56
73453;BME280;61687;56.232;43.854;2024-03-02T11:09:34;102406.53;;;5.83;60.59
73453;BME280;61687;56.232;43.854;2024-03-02T11:12:18;102410.94;;;5.79;60.61
73453;BME280;61687;56.232;43.854;2024-03-02T11:14:45;102408.53;;;5.72;60.46
73453;BME280;61687;56.232;43.854;2024-03-02T11:17:13;102426.56;;;5.58;60.68
73453;BME280;61687;56.232;43.854;2024-03-02T11:19:41;102417.41;;;5.38;61.09
73453;BME280;61687;56.232;43.854;2024-03-02T11:22:08;102422.84;;;5.38;61.16
73453;BME280;61687;56.232;43.854;2024-03-02T11:24:35;102422.53;;;5.45;60.95
73453;BME280;61687;56.232;43.854;2024-03-02T11:27:04;102414.91;;;5.52;60.73
73453;BME280;61687;56.232;43.854;2024-03-02T11:32:20;102427.94;;;5.55;60.46
73453;BME280;61687;56.232;43.854;2024-03-02T11:34:48;102418.91;;;5.60;60.30
73453;BME280;61687;56.232;43.854;2024-03-02T11:37:19;102424.34;;;5.65;60.18
73453;BME280;61687;56.232;43.854;2024-03-02T11:39:51;102419.44;;;5.67;60.23
73453;BME280;61687;56.232;43.854;2024-03-02T11:42:17;102423.50;;;5.70;60.27
73453;BME280;61687;56.232;43.854;2024-03-02T11:44:47;102420.25;;;5.68;60.06
73453;BME280;61687;56.232;43.854;2024-03-02T11:47:15;102421.59;;;5.70;60.18
73453;BME280;61687;56.232;43.854;2024-03-02T11:52:13;102428.31;;;5.83;59.88
73453;BME280;61687;56.232;43.854;2024-03-02T11:54:44;102428.56;;;5.87;59.65
73453;BME280;61687;56.232;43.854;2024-03-02T11:57:19;102431.00;;;5.88;59.41
73453;BME280;61687;56.232;43.854;2024-03-02T11:59:48;102422.16;;;5.67;60.06
73453;BME280;61687;56.232;43.854;2024-03-02T12:02:21;102433.31;;;5.66;60.25
73453;BME280;61687;56.232;43.854;2024-03-02T12:04:48;102432.53;;;5.60;60.55
73453;BME280;61687;56.232;43.854;2024-03-02T12:07:24;102440.94;;;5.64;60.45
73453;BME280;61687;56.232;43.854;2024-03-02T12:10:00;102436.81;;;5.71;60.37
73453;BME280;61687;56.232;43.854;2024-03-02T12:12:30;102429.19;;;5.73;60.20
73453;BME280;61687;56.232;43.854;2024-03-02T12:14:56;102440.06;;;5.73;60.12
73453;BME280;61687;56.232;43.854;2024-03-02T12:17:22;102443.06;;;5.72;60.09
73453;BME280;61687;56.232;43.854;2024-03-02T12:19:49;102444.16;;;5.71;60.20
73453;BME280;61687;56.232;43.854;2024-03-02T12:22:15;102437.31;;;5.79;60.29
73453;BME280;61687;56.232;43.854;2024-03-02T12:24:42;102441.59;;;5.90;59.84
73453;BME280;61687;56.232;43.854;2024-03-02T12:27:12;102445.59;;;6.08;59.48
73453;BME280;61687;56.232;43.854;2024-03-02T12:29:39;102436.28;;;6.14;59.15
73453;BME280;61687;56.232;43.854;2024-03-02T12:32:05;102446.09;;;6.15;59.08
73453;BME280;61687;56.232;43.854;2024-03-02T12:34:32;102450.41;;;6.22;58.82
73453;BME280;61687;56.232;43.854;2024-03-02T12:36:58;102444.69;;;6.18;58.86
73453;BME280;61687;56.232;43.854;2024-03-02T12:39:24;102449.69;;;6.06;58.95
73453;BME280;61687;56.232;43.854;2024-03-02T12:41:50;102441.44;;;6.16;58.67
73453;BME280;61687;56.232;43.854;2024-03-02T12:44:17;102446.09;;;6.45;58.24
73453;BME280;61687;56.232;43.854;2024-03-02T12:46:46;102443.81;;;7.11;56.79
73453;BME280;61687;56.232;43.854;2024-03-02T12:49:14;102442.13;;;7.97;54.56
73453;BME280;61687;56.232;43.854;2024-03-02T12:51:44;102434.25;;;8.29;53.68
73453;BME280;61687;56.232;43.854;2024-03-02T12:54:14;102443.13;;;8.35;53.06
73453;BME280;61687;56.232;43.854;2024-03-02T12:56:41;102439.06;;;8.51;52.56